sensor_id;sensor_type;location;lat;lon;timestamp;P1;durP1;ratioP1;P2;durP2;ratioP2
37931;SDS011;23758;42.640;23.302;2022-07-06T00:02:12;3.20;;;3.00;;
37931;SDS011;23758;42.640;23.302;2022-07-06T00:04:37;3.72;;;3.53;;
37931;SDS011;23758;42.640;23.302;2022-07-06T00:07:03;4.10;;;3.80;;
37931;SDS011;23758;42.640;23.302;2022-07-06T00:09:28;4.05;;;3.78;;
37931;SDS011;23758;42.640;23.302;2022-07-06T00:11:54;3.45;;;3.25;;
37931;SDS011;23758;42.640;23.302;2022-07-06T00:14:19;3.38;;;3.17;;
37931;SDS011;23758;42.640;23.302;2022-07-06T00:16:45;4.97;;;4.57;;
37931;SDS011;23758;42.640;23.302;2022-07-06T00:19:11;4.10;;;3.80;;
37931;SDS011;23758;42.640;23.302;2022-07-06T00:21:37;4.03;;;3.72;;
37931;SDS011;23758;42.640;23.302;2022-07-06T00:24:03;3.40;;;3.20;;
37931;SDS011;23758;42.640;23.302;2022-07-06T00:26:29;3.53;;;3.33;;
37931;SDS011;23758;42.640;23.302;2022-07-06T00:28:54;3.97;;;3.67;;
37931;SDS011;23758;42.640;23.302;2022-07-06T00:31:20;3.92;;;3.63;;
37931;SDS011;23758;42.640;23.302;2022-07-06T00:33:45;3.17;;;2.92;;
37931;SDS011;23758;42.640;23.302;2022-07-06T00:36:11;3.20;;;3.00;;
37931;SDS011;23758;42.640;23.302;2022-07-06T00:38:36;3.10;;;2.90;;
37931;SDS011;23758;42.640;23.302;2022-07-06T00:41:02;3.10;;;2.90;;
37931;SDS011;23758;42.640;23.302;2022-07-06T00:43:27;3.28;;;2.97;;
37931;SDS011;23758;42.640;23.302;2022-07-06T00:45:53;3.10;;;2.90;;
37931;SDS011;23758;42.640;23.302;2022-07-06T00:48:20;12.43;;;3.28;;
37931;SDS011;23758;42.640;23.302;2022-07-06T00:50:46;3.97;;;3.67;;
37931;SDS011;23758;42.640;23.302;2022-07-06T00:53:12;3.90;;;3.60;;
37931;SDS011;23758;42.640;23.302;2022-07-06T00:55:38;3.33;;;3.13;;
37931;SDS011;23758;42.640;23.302;2022-07-06T00:58:05;3.70;;;3.50;;
37931;SDS011;23758;42.640;23.302;2022-07-06T01:00:32;4.00;;;3.70;;
37931;SDS011;23758;42.640;23.302;2022-07-06T01:02:58;3.45;;;3.25;;
37931;SDS011;23758;42.640;23.302;2022-07-06T01:05:23;3.83;;;3.55;;
37931;SDS011;23758;42.640;23.302;2022-07-06T01:07:51;3.15;;;2.95;;
37931;SDS011;23758;42.640;23.302;2022-07-06T01:10:19;3.45;;;3.22;;
37931;SDS011;23758;42.640;23.302;2022-07-06T01:12:45;3.13;;;2.92;;
37931;SDS011;23758;42.640;23.302;2022-07-06T01:15:13;3.85;;;3.60;;
37931;SDS011;23758;42.640;23.302;2022-07-06T01:17:41;3.60;;;3.30;;
37931;SDS011;23758;42.640;23.302;2022-07-06T01:20:11;3.65;;;3.45;;
37931;SDS011;23758;42.640;23.302;2022-07-06T01:22:43;3.95;;;3.70;;
37931;SDS011;23758;42.640;23.302;2022-07-06T01:25:09;4.32;;;3.97;;
37931;SDS011;23758;42.640;23.302;2022-07-06T01:27:36;4.35;;;4.05;;
37931;SDS011;23758;42.640;23.302;2022-07-06T01:30:06;4.47;;;4.18;;
37931;SDS011;23758;42.640;23.302;2022-07-06T01:32:40;4.57;;;4.28;;
37931;SDS011;23758;42.640;23.302;2022-07-06T01:35:06;5.07;;;4.78;;
37931;SDS011;23758;42.640;23.302;2022-07-06T01:37:33;4.78;;;4.47;;
37931;SDS011;23758;42.640;23.302;2022-07-06T01:39:59;4.40;;;4.10;;
37931;SDS011;23758;42.640;23.302;2022-07-06T01:42:26;5.80;;;3.97;;
37931;SDS011;23758;42.640;23.302;2022-07-06T01:44:52;4.15;;;3.85;;
37931;SDS011;23758;42.640;23.302;2022-07-06T01:47:18;4.13;;;3.83;;
37931;SDS011;23758;42.640;23.302;2022-07-06T01:49:44;4.93;;;4.53;;
37931;SDS011;23758;42.640;23.302;2022-07-06T01:52:09;4.30;;;4.00;;
37931;SDS011;23758;42.640;23.302;2022-07-06T01:54:35;4.40;;;4.07;;
37931;SDS011;23758;42.640;23.302;2022-07-06T01:57:00;5.72;;;4.07;;
37931;SDS011;23758;42.640;23.302;2022-07-06T01:59:26;4.60;;;4.30;;
37931;SDS011;23758;42.640;23.302;2022-07-06T02:01:51;4.65;;;4.35;;
37931;SDS011;23758;42.640;23.302;2022-07-06T02:04:17;4.97;;;4.50;;
37931;SDS011;23758;42.640;23.302;2022-07-06T02:06:42;4.80;;;4.50;;
37931;SDS011;23758;42.640;23.302;2022-07-06T02:09:07;4.25;;;3.95;;
37931;SDS011;23758;42.640;23.302;2022-07-06T02:11:33;4.30;;;4.00;;
37931;SDS011;23758;42.640;23.302;2022-07-06T02:13:59;4.15;;;3.85;;
37931;SDS011;23758;42.640;23.302;2022-07-06T02:16:24;3.70;;;3.40;;
37931;SDS011;23758;42.640;23.302;2022-07-06T02:18:50;3.53;;;3.30;;
37931;SDS011;23758;42.640;23.302;2022-07-06T02:21:16;3.25;;;3.05;;
37931;SDS011;23758;42.640;23.302;2022-07-06T02:23:41;3.13;;;2.92;;
37931;SDS011;23758;42.640;23.302;2022-07-06T02:26:07;3.88;;;3.58;;
37931;SDS011;23758;42.640;23.302;2022-07-06T02:28:33;3.28;;;3.08;;
37931;SDS011;23758;42.640;23.302;2022-07-06T02:30:58;3.25;;;3.05;;
37931;SDS011;23758;42.640;23.302;2022-07-06T02:33:24;3.65;;;3.35;;
37931;SDS011;23758;42.640;23.302;2022-07-06T02:35:49;3.47;;;3.28;;
37931;SDS011;23758;42.640;23.302;2022-07-06T02:38:15;3.38;;;3.17;;
37931;SDS011;23758;42.640;23.302;2022-07-06T02:40:40;3.53;;;3.33;;
37931;SDS011;23758;42.640;23.302;2022-07-06T02:43:06;4.20;;;3.90;;
37931;SDS011;23758;42.640;23.302;2022-07-06T02:45:31;4.57;;;4.28;;
37931;SDS011;23758;42.640;23.302;2022-07-06T02:47:57;4.68;;;4.38;;
37931;SDS011;23758;42.640;23.302;2022-07-06T02:50:26;4.47;;;4.18;;
37931;SDS011;23758;42.640;23.302;2022-07-06T02:52:51;4.50;;;4.20;;
37931;SDS011;23758;42.640;23.302;2022-07-06T02:55:17;4.45;;;4.15;;
37931;SDS011;23758;42.640;23.302;2022-07-06T02:57:42;4.88;;;4.57;;
37931;SDS011;23758;42.640;23.302;2022-07-06T03:00:08;4.70;;;4.40;;
37931;SDS011;23758;42.640;23.302;2022-07-06T03:02:35;4.78;;;4.47;;
37931;SDS011;23758;42.640;23.302;2022-07-06T03:05:01;5.25;;;4.85;;
37931;SDS011;23758;42.640;23.302;2022-07-06T03:07:26;4.18;;;3.88;;
37931;SDS011;23758;42.640;23.302;2022-07-06T03:09:52;4.70;;;4.40;;
37931;SDS011;23758;42.640;23.302;2022-07-06T03:12:18;4.25;;;3.95;;
37931;SDS011;23758;42.640;23.302;2022-07-06T03:14:43;4.40;;;4.10;;
37931;SDS011;23758;42.640;23.302;2022-07-06T03:17:09;5.15;;;4.85;;
37931;SDS011;23758;42.640;23.302;2022-07-06T03:19:34;4.78;;;4.47;;
37931;SDS011;23758;42.640;23.302;2022-07-06T03:22:00;3.85;;;3.55;;
37931;SDS011;23758;42.640;23.302;2022-07-06T03:24:25;4.80;;;4.40;;
37931;SDS011;23758;42.640;23.302;2022-07-06T03:26:51;3.95;;;3.65;;
37931;SDS011;23758;42.640;23.302;2022-07-06T03:29:16;3.08;;;2.88;;
37931;SDS011;23758;42.640;23.302;2022-07-06T03:31:42;3.35;;;3.15;;
37931;SDS011;23758;42.640;23.302;2022-07-06T03:34:07;2.90;;;2.70;;
37931;SDS011;23758;42.640;23.302;2022-07-06T03:36:33;3.17;;;2.97;;
37931;SDS011;23758;42.640;23.302;2022-07-06T03:38:59;3.13;;;2.83;;
37931;SDS011;23758;42.640;23.302;2022-07-06T03:41:24;3.08;;;2.88;;
37931;SDS011;23758;42.640;23.302;2022-07-06T03:43:50;3.15;;;2.95;;
37931;SDS011;23758;42.640;23.302;2022-07-06T03:46:15;3.45;;;3.25;;
37931;SDS011;23758;42.640;23.302;2022-07-06T03:48:41;2.97;;;2.78;;
37931;SDS011;23758;42.640;23.302;2022-07-06T03:51:06;3.65;;;3.35;;
37931;SDS011;23758;42.640;23.302;2022-07-06T03:53:32;3.40;;;3.20;;
37931;SDS011;23758;42.640;23.302;2022-07-06T03:55:58;3.90;;;3.60;;
37931;SDS011;23758;42.640;23.302;2022-07-06T03:58:42;3.97;;;3.47;;
37931;SDS011;23758;42.640;23.302;2022-07-06T04:01:07;3.80;;;3.60;;
37931;SDS011;23758;42.640;23.302;2022-07-06T04:03:33;3.92;;;3.65;;
37931;SDS011;23758;42.640;23.302;2022-07-06T04:05:58;3.15;;;2.95;;
37931;SDS011;23758;42.640;23.302;2022-07-06T04:08:24;2.83;;;2.60;;
37931;SDS011;23758;42.640;23.302;2022-07-06T04:10:49;3.00;;;2.80;;
37931;SDS011;23758;42.640;23.302;2022-07-06T04:13:15;2.95;;;2.75;;
37931;SDS011;23758;42.640;23.302;2022-07-06T04:15:41;2.65;;;2.45;;
37931;SDS011;23758;42.640;23.302;2022-07-06T04:18:06;2.40;;;2.30;;
37931;SDS011;23758;42.640;23.302;2022-07-06T04:20:32;2.20;;;2.10;;
37931;SDS011;23758;42.640;23.302;2022-07-06T04:22:57;2.20;;;2.10;;
37931;SDS011;23758;42.640;23.302;2022-07-06T04:25:23;2.17;;;2.08;;
37931;SDS011;23758;42.640;23.302;2022-07-06T04:27:49;2.20;;;2.00;;
37931;SDS011;23758;42.640;23.302;2022-07-06T04:30:14;2.58;;;2.38;;
37931;SDS011;23758;42.640;23.302;2022-07-06T04:32:40;2.20;;;2.10;;
37931;SDS011;23758;42.640;23.302;2022-07-06T04:35:06;2.10;;;2.00;;
37931;SDS011;23758;42.640;23.302;2022-07-06T04:37:31;2.22;;;2.13;;
37931;SDS011;23758;42.640;23.302;2022-07-06T04:39:57;2.20;;;2.08;;
37931;SDS011;23758;42.640;23.302;2022-07-06T04:42:23;1.80;;;1.70;;
37931;SDS011;23758;42.640;23.302;2022-07-06T04:44:49;2.17;;;2.08;;
37931;SDS011;23758;42.640;23.302;2022-07-06T04:47:16;1.90;;;1.80;;
37931;SDS011;23758;42.640;23.302;2022-07-06T04:49:42;1.88;;;1.77;;
37931;SDS011;23758;42.640;23.302;2022-07-06T04:52:08;2.00;;;1.90;;
37931;SDS011;23758;42.640;23.302;2022-07-06T04:54:34;1.92;;;1.83;;
37931;SDS011;23758;42.640;23.302;2022-07-06T04:56:59;2.40;;;2.20;;
37931;SDS011;23758;42.640;23.302;2022-07-06T04:59:25;2.10;;;2.00;;
37931;SDS011;23758;42.640;23.302;2022-07-06T05:01:50;2.25;;;2.15;;
37931;SDS011;23758;42.640;23.302;2022-07-06T05:04:16;2.50;;;2.30;;
37931;SDS011;23758;42.640;23.302;2022-07-06T05:06:44;2.50;;;2.30;;
37931;SDS011;23758;42.640;23.302;2022-07-06T05:09:10;2.60;;;2.40;;
37931;SDS011;23758;42.640;23.302;2022-07-06T05:11:36;4.22;;;2.40;;
37931;SDS011;23758;42.640;23.302;2022-07-06T05:14:02;5.53;;;3.17;;
37931;SDS011;23758;42.640;23.302;2022-07-06T05:16:28;2.70;;;2.50;;
37931;SDS011;23758;42.640;23.302;2022-07-06T05:18:54;2.60;;;2.40;;
37931;SDS011;23758;42.640;23.302;2022-07-06T05:21:19;2.97;;;2.78;;
37931;SDS011;23758;42.640;23.302;2022-07-06T05:23:45;2.33;;;2.22;;
37931;SDS011;23758;42.640;23.302;2022-07-06T05:26:10;2.30;;;2.20;;
37931;SDS011;23758;42.640;23.302;2022-07-06T05:28:36;2.65;;;2.45;;
37931;SDS011;23758;42.640;23.302;2022-07-06T05:31:01;2.70;;;2.50;;
37931;SDS011;23758;42.640;23.302;2022-07-06T05:33:27;2.50;;;2.30;;
37931;SDS011;23758;42.640;23.302;2022-07-06T05:35:53;2.15;;;2.05;;
37931;SDS011;23758;42.640;23.302;2022-07-06T05:38:18;2.75;;;2.55;;
37931;SDS011;23758;42.640;23.302;2022-07-06T05:40:44;2.40;;;2.22;;
37931;SDS011;23758;42.640;23.302;2022-07-06T05:43:10;2.05;;;1.95;;
37931;SDS011;23758;42.640;23.302;2022-07-06T05:45:35;1.90;;;1.80;;
37931;SDS011;23758;42.640;23.302;2022-07-06T05:48:01;2.10;;;2.00;;
37931;SDS011;23758;42.640;23.302;2022-07-06T05:50:45;2.35;;;2.15;;
37931;SDS011;23758;42.640;23.302;2022-07-06T05:53:10;2.47;;;2.28;;
37931;SDS011;23758;42.640;23.302;2022-07-06T05:55:36;2.72;;;2.47;;
37931;SDS011;23758;42.640;23.302;2022-07-06T05:58:01;2.30;;;2.17;;
37931;SDS011;23758;42.640;23.302;2022-07-06T06:00:27;2.90;;;2.70;;
37931;SDS011;23758;42.640;23.302;2022-07-06T06:02:53;2.10;;;2.00;;
37931;SDS011;23758;42.640;23.302;2022-07-06T06:05:19;2.30;;;2.20;;
37931;SDS011;23758;42.640;23.302;2022-07-06T06:07:45;2.33;;;2.17;;
37931;SDS011;23758;42.640;23.302;2022-07-06T06:10:12;2.17;;;1.98;;
37931;SDS011;23758;42.640;23.302;2022-07-06T06:12:39;2.20;;;2.10;;
37931;SDS011;23758;42.640;23.302;2022-07-06T06:15:05;2.25;;;2.05;;
37931;SDS011;23758;42.640;23.302;2022-07-06T06:17:31;2.05;;;1.95;;
37931;SDS011;23758;42.640;23.302;2022-07-06T06:19:57;2.38;;;1.90;;
37931;SDS011;23758;42.640;23.302;2022-07-06T06:22:23;2.42;;;2.30;;
37931;SDS011;23758;42.640;23.302;2022-07-06T06:24:49;2.30;;;2.20;;
37931;SDS011;23758;42.640;23.302;2022-07-06T06:27:14;2.00;;;1.90;;
37931;SDS011;23758;42.640;23.302;2022-07-06T06:29:40;2.08;;;1.98;;
37931;SDS011;23758;42.640;23.302;2022-07-06T06:32:07;2.10;;;2.00;;
37931;SDS011;23758;42.640;23.302;2022-07-06T06:34:32;2.10;;;2.00;;
37931;SDS011;23758;42.640;23.302;2022-07-06T06:36:58;2.45;;;2.25;;
37931;SDS011;23758;42.640;23.302;2022-07-06T06:39:23;2.35;;;2.25;;
37931;SDS011;23758;42.640;23.302;2022-07-06T06:41:50;2.50;;;2.30;;
37931;SDS011;23758;42.640;23.302;2022-07-06T06:44:15;2.20;;;2.10;;
37931;SDS011;23758;42.640;23.302;2022-07-06T06:46:42;2.20;;;2.10;;
37931;SDS011;23758;42.640;23.302;2022-07-06T06:49:08;2.10;;;2.00;;
37931;SDS011;23758;42.640;23.302;2022-07-06T06:51:34;2.17;;;2.05;;
37931;SDS011;23758;42.640;23.302;2022-07-06T06:54:00;2.55;;;2.10;;
37931;SDS011;23758;42.640;23.302;2022-07-06T06:56:25;2.47;;;2.28;;
37931;SDS011;23758;42.640;23.302;2022-07-06T06:58:51;2.70;;;2.50;;
37931;SDS011;23758;42.640;23.302;2022-07-06T07:01:17;2.50;;;2.30;;
37931;SDS011;23758;42.640;23.302;2022-07-06T07:03:42;2.50;;;2.30;;
37931;SDS011;23758;42.640;23.302;2022-07-06T07:06:08;2.10;;;2.00;;
37931;SDS011;23758;42.640;23.302;2022-07-06T07:08:33;2.35;;;2.22;;
37931;SDS011;23758;42.640;23.302;2022-07-06T07:10:59;2.63;;;2.42;;
37931;SDS011;23758;42.640;23.302;2022-07-06T07:13:24;2.50;;;2.30;;
37931;SDS011;23758;42.640;23.302;2022-07-06T07:15:50;2.08;;;1.98;;
37931;SDS011;23758;42.640;23.302;2022-07-06T07:18:16;2.65;;;2.40;;
37931;SDS011;23758;42.640;23.302;2022-07-06T07:20:41;2.22;;;2.13;;
37931;SDS011;23758;42.640;23.302;2022-07-06T07:23:07;6.20;;;3.15;;
37931;SDS011;23758;42.640;23.302;2022-07-06T07:25:32;2.33;;;2.22;;
37931;SDS011;23758;42.640;23.302;2022-07-06T07:27:58;2.60;;;2.42;;
37931;SDS011;23758;42.640;23.302;2022-07-06T07:30:23;2.40;;;2.22;;
37931;SDS011;23758;42.640;23.302;2022-07-06T07:32:49;2.40;;;2.20;;
37931;SDS011;23758;42.640;23.302;2022-07-06T07:35:14;2.05;;;1.95;;
37931;SDS011;23758;42.640;23.302;2022-07-06T07:37:40;2.25;;;2.05;;
37931;SDS011;23758;42.640;23.302;2022-07-06T07:40:05;2.33;;;2.17;;
37931;SDS011;23758;42.640;23.302;2022-07-06T07:42:32;2.10;;;2.00;;
37931;SDS011;23758;42.640;23.302;2022-07-06T07:44:57;2.45;;;2.25;;
37931;SDS011;23758;42.640;23.302;2022-07-06T07:47:23;2.22;;;2.08;;
37931;SDS011;23758;42.640;23.302;2022-07-06T07:49:48;2.38;;;2.17;;
37931;SDS011;23758;42.640;23.302;2022-07-06T07:52:14;2.20;;;2.10;;
37931;SDS011;23758;42.640;23.302;2022-07-06T07:54:40;2.63;;;2.42;;
37931;SDS011;23758;42.640;23.302;2022-07-06T07:57:05;2.20;;;2.10;;
37931;SDS011;23758;42.640;23.302;2022-07-06T07:59:31;2.20;;;2.10;;
37931;SDS011;23758;42.640;23.302;2022-07-06T08:01:56;2.85;;;2.15;;
37931;SDS011;23758;42.640;23.302;2022-07-06T08:04:22;2.58;;;2.38;;
37931;SDS011;23758;42.640;23.302;2022-07-06T08:06:47;2.10;;;2.00;;
37931;SDS011;23758;42.640;23.302;2022-07-06T08:09:13;2.15;;;2.05;;
37931;SDS011;23758;42.640;23.302;2022-07-06T08:11:39;2.90;;;2.70;;
37931;SDS011;23758;42.640;23.302;2022-07-06T08:14:04;2.30;;;2.20;;
37931;SDS011;23758;42.640;23.302;2022-07-06T08:16:30;2.28;;;2.17;;
37931;SDS011;23758;42.640;23.302;2022-07-06T08:18:56;2.63;;;2.42;;
37931;SDS011;23758;42.640;23.302;2022-07-06T08:21:22;2.30;;;2.20;;
37931;SDS011;23758;42.640;23.302;2022-07-06T08:23:47;2.30;;;2.20;;
37931;SDS011;23758;42.640;23.302;2022-07-06T08:26:13;2.42;;;2.33;;
37931;SDS011;23758;42.640;23.302;2022-07-06T08:28:38;2.60;;;2.40;;
37931;SDS011;23758;42.640;23.302;2022-07-06T08:31:04;1.88;;;1.77;;
37931;SDS011;23758;42.640;23.302;2022-07-06T08:33:30;2.10;;;2.00;;
37931;SDS011;23758;42.640;23.302;2022-07-06T08:35:55;2.15;;;2.03;;
37931;SDS011;23758;42.640;23.302;2022-07-06T08:38:21;1.90;;;1.80;;
37931;SDS011;23758;42.640;23.302;2022-07-06T08:40:47;1.67;;;1.58;;
37931;SDS011;23758;42.640;23.302;2022-07-06T08:43:14;1.75;;;1.65;;
37931;SDS011;23758;42.640;23.302;2022-07-06T08:45:40;1.40;;;1.30;;
37931;SDS011;23758;42.640;23.302;2022-07-06T08:48:09;1.98;;;1.80;;
37931;SDS011;23758;42.640;23.302;2022-07-06T08:50:35;1.70;;;1.60;;
37931;SDS011;23758;42.640;23.302;2022-07-06T08:53:00;2.22;;;2.03;;
37931;SDS011;23758;42.640;23.302;2022-07-06T08:55:26;2.28;;;1.80;;
37931;SDS011;23758;42.640;23.302;2022-07-06T08:57:52;1.70;;;1.60;;
37931;SDS011;23758;42.640;23.302;2022-07-06T09:00:19;1.83;;;1.73;;
37931;SDS011;23758;42.640;23.302;2022-07-06T09:02:45;2.00;;;1.90;;
37931;SDS011;23758;42.640;23.302;2022-07-06T09:05:14;1.88;;;1.77;;
37931;SDS011;23758;42.640;23.302;2022-07-06T09:07:40;1.70;;;1.60;;
37931;SDS011;23758;42.640;23.302;2022-07-06T09:10:06;1.75;;;1.65;;
37931;SDS011;23758;42.640;23.302;2022-07-06T09:12:33;1.98;;;1.88;;
37931;SDS011;23758;42.640;23.302;2022-07-06T09:14:59;3.17;;;2.10;;
37931;SDS011;23758;42.640;23.302;2022-07-06T09:17:28;1.83;;;1.73;;
37931;SDS011;23758;42.640;23.302;2022-07-06T09:19:54;1.80;;;1.70;;
37931;SDS011;23758;42.640;23.302;2022-07-06T09:22:27;1.80;;;1.70;;
37931;SDS011;23758;42.640;23.302;2022-07-06T09:25:05;1.80;;;1.70;;
37931;SDS011;23758;42.640;23.302;2022-07-06T09:27:37;2.10;;;2.00;;
37931;SDS011;23758;42.640;23.302;2022-07-06T09:30:04;2.03;;;1.92;;
37931;SDS011;23758;42.640;23.302;2022-07-06T09:32:32;2.03;;;1.92;;
37931;SDS011;23758;42.640;23.302;2022-07-06T09:37:29;1.70;;;1.60;;
37931;SDS011;23758;42.640;23.302;2022-07-06T09:39:55;2.17;;;1.90;;
37931;SDS011;23758;42.640;23.302;2022-07-06T09:42:24;2.03;;;1.92;;
37931;SDS011;23758;42.640;23.302;2022-07-06T09:44:51;2.53;;;2.33;;
37931;SDS011;23758;42.640;23.302;2022-07-06T09:47:17;1.95;;;1.85;;
37931;SDS011;23758;42.640;23.302;2022-07-06T09:49:43;1.95;;;1.80;;
37931;SDS011;23758;42.640;23.302;2022-07-06T09:52:10;1.90;;;1.80;;
37931;SDS011;23758;42.640;23.302;2022-07-06T09:54:37;1.90;;;1.80;;
37931;SDS011;23758;42.640;23.302;2022-07-06T09:57:06;1.80;;;1.70;;
37931;SDS011;23758;42.640;23.302;2022-07-06T09:59:33;2.10;;;1.95;;
37931;SDS011;23758;42.640;23.302;2022-07-06T10:02:00;1.77;;;1.67;;
37931;SDS011;23758;42.640;23.302;2022-07-06T10:04:29;2.17;;;1.80;;
37931;SDS011;23758;42.640;23.302;2022-07-06T10:06:55;1.80;;;1.70;;
37931;SDS011;23758;42.640;23.302;2022-07-06T10:09:22;3.97;;;2.88;;
37931;SDS011;23758;42.640;23.302;2022-07-06T10:14:15;1.90;;;1.80;;
37931;SDS011;23758;42.640;23.302;2022-07-06T10:16:43;2.03;;;1.92;;
37931;SDS011;23758;42.640;23.302;2022-07-06T10:19:10;2.80;;;2.55;;
37931;SDS011;23758;42.640;23.302;2022-07-06T10:21:37;2.05;;;1.95;;
37931;SDS011;23758;42.640;23.302;2022-07-06T10:24:07;1.90;;;1.80;;
37931;SDS011;23758;42.640;23.302;2022-07-06T10:26:34;2.00;;;1.90;;
37931;SDS011;23758;42.640;23.302;2022-07-06T10:29:01;2.42;;;2.00;;
37931;SDS011;23758;42.640;23.302;2022-07-06T10:31:28;1.90;;;1.80;;
37931;SDS011;23758;42.640;23.302;2022-07-06T10:33:56;2.10;;;2.00;;
37931;SDS011;23758;42.640;23.302;2022-07-06T10:36:23;2.45;;;2.25;;
37931;SDS011;23758;42.640;23.302;2022-07-06T10:38:50;1.75;;;1.65;;
37931;SDS011;23758;42.640;23.302;2022-07-06T10:41:16;2.05;;;1.80;;
37931;SDS011;23758;42.640;23.302;2022-07-06T10:43:43;2.22;;;1.95;;
37931;SDS011;23758;42.640;23.302;2022-07-06T10:46:09;1.95;;;1.85;;
37931;SDS011;23758;42.640;23.302;2022-07-06T10:48:40;2.30;;;2.10;;
37931;SDS011;23758;42.640;23.302;2022-07-06T10:51:07;2.15;;;1.85;;
37931;SDS011;23758;42.640;23.302;2022-07-06T10:53:37;1.90;;;1.80;;
37931;SDS011;23758;42.640;23.302;2022-07-06T10:56:05;1.98;;;1.83;;
37931;SDS011;23758;42.640;23.302;2022-07-06T11:01:13;1.88;;;1.77;;
37931;SDS011;23758;42.640;23.302;2022-07-06T11:03:40;2.40;;;2.20;;
37931;SDS011;23758;42.640;23.302;2022-07-06T11:09:08;2.72;;;2.17;;
37931;SDS011;23758;42.640;23.302;2022-07-06T11:14:00;2.40;;;2.20;;
37931;SDS011;23758;42.640;23.302;2022-07-06T11:16:36;2.35;;;2.15;;
37931;SDS011;23758;42.640;23.302;2022-07-06T11:19:12;1.88;;;1.77;;
37931;SDS011;23758;42.640;23.302;2022-07-06T11:21:49;2.17;;;2.05;;
37931;SDS011;23758;42.640;23.302;2022-07-06T11:24:22;2.35;;;2.15;;
37931;SDS011;23758;42.640;23.302;2022-07-06T11:26:49;1.98;;;1.88;;
37931;SDS011;23758;42.640;23.302;2022-07-06T11:29:16;2.00;;;1.90;;
37931;SDS011;23758;42.640;23.302;2022-07-06T11:31:44;1.52;;;1.42;;
37931;SDS011;23758;42.640;23.302;2022-07-06T11:34:11;2.22;;;2.13;;
37931;SDS011;23758;42.640;23.302;2022-07-06T11:36:39;1.85;;;1.75;;
37931;SDS011;23758;42.640;23.302;2022-07-06T11:39:06;1.90;;;1.80;;
37931;SDS011;23758;42.640;23.302;2022-07-06T11:41:32;1.77;;;1.67;;
37931;SDS011;23758;42.640;23.302;2022-07-06T11:43:57;1.90;;;1.80;;
37931;SDS011;23758;42.640;23.302;2022-07-06T11:46:24;2.20;;;2.05;;
37931;SDS011;23758;42.640;23.302;2022-07-06T11:48:50;1.85;;;1.75;;
37931;SDS011;23758;42.640;23.302;2022-07-06T11:51:17;1.98;;;1.88;;
37931;SDS011;23758;42.640;23.302;2022-07-06T11:53:47;1.65;;;1.55;;
37931;SDS011;23758;42.640;23.302;2022-07-06T11:56:15;1.88;;;1.70;;
37931;SDS011;23758;42.640;23.302;2022-07-06T11:58:43;1.83;;;1.73;;
37931;SDS011;23758;42.640;23.302;2022-07-06T12:01:12;1.88;;;1.77;;
37931;SDS011;23758;42.640;23.302;2022-07-06T12:03:38;1.83;;;1.73;;
37931;SDS011;23758;42.640;23.302;2022-07-06T12:06:04;2.10;;;2.00;;
37931;SDS011;23758;42.640;23.302;2022-07-06T12:08:31;1.55;;;1.45;;
37931;SDS011;23758;42.640;23.302;2022-07-06T12:10:58;1.90;;;1.80;;
37931;SDS011;23758;42.640;23.302;2022-07-06T12:13:24;2.08;;;1.98;;
37931;SDS011;23758;42.640;23.302;2022-07-06T12:15:50;1.95;;;1.85;;
37931;SDS011;23758;42.640;23.302;2022-07-06T12:18:16;2.00;;;1.90;;
37931;SDS011;23758;42.640;23.302;2022-07-06T12:20:41;1.80;;;1.70;;
37931;SDS011;23758;42.640;23.302;2022-07-06T12:23:07;4.22;;;1.92;;
37931;SDS011;23758;42.640;23.302;2022-07-06T12:25:34;2.42;;;2.22;;
37931;SDS011;23758;42.640;23.302;2022-07-06T12:28:00;1.80;;;1.70;;
37931;SDS011;23758;42.640;23.302;2022-07-06T12:30:26;1.83;;;1.73;;
37931;SDS011;23758;42.640;23.302;2022-07-06T12:33:11;1.70;;;1.60;;
37931;SDS011;23758;42.640;23.302;2022-07-06T12:35:42;1.80;;;1.70;;
37931;SDS011;23758;42.640;23.302;2022-07-06T12:38:07;1.70;;;1.60;;
37931;SDS011;23758;42.640;23.302;2022-07-06T12:40:34;1.55;;;1.45;;
37931;SDS011;23758;42.640;23.302;2022-07-06T12:43:01;1.60;;;1.50;;
37931;SDS011;23758;42.640;23.302;2022-07-06T12:45:28;1.90;;;1.80;;
37931;SDS011;23758;42.640;23.302;2022-07-06T12:47:57;2.10;;;2.00;;
37931;SDS011;23758;42.640;23.302;2022-07-06T12:50:32;1.70;;;1.60;;
37931;SDS011;23758;42.640;23.302;2022-07-06T12:52:59;2.10;;;2.00;;
37931;SDS011;23758;42.640;23.302;2022-07-06T12:55:26;1.70;;;1.60;;
37931;SDS011;23758;42.640;23.302;2022-07-06T12:57:53;1.77;;;1.67;;
37931;SDS011;23758;42.640;23.302;2022-07-06T13:00:19;1.92;;;1.83;;
37931;SDS011;23758;42.640;23.302;2022-07-06T13:02:47;1.67;;;1.58;;
37931;SDS011;23758;42.640;23.302;2022-07-06T13:05:14;1.80;;;1.70;;
37931;SDS011;23758;42.640;23.302;2022-07-06T13:07:44;1.70;;;1.60;;
37931;SDS011;23758;42.640;23.302;2022-07-06T13:10:12;2.08;;;1.98;;
37931;SDS011;23758;42.640;23.302;2022-07-06T13:12:38;1.70;;;1.60;;
37931;SDS011;23758;42.640;23.302;2022-07-06T13:15:05;1.70;;;1.60;;
37931;SDS011;23758;42.640;23.302;2022-07-06T13:17:32;1.70;;;1.60;;
37931;SDS011;23758;42.640;23.302;2022-07-06T13:19:58;1.90;;;1.80;;
37931;SDS011;23758;42.640;23.302;2022-07-06T13:22:23;1.77;;;1.67;;
37931;SDS011;23758;42.640;23.302;2022-07-06T13:24:49;1.60;;;1.50;;
37931;SDS011;23758;42.640;23.302;2022-07-06T13:27:14;1.77;;;1.67;;
37931;SDS011;23758;42.640;23.302;2022-07-06T13:29:40;2.00;;;1.90;;
37931;SDS011;23758;42.640;23.302;2022-07-06T13:32:05;1.77;;;1.67;;
37931;SDS011;23758;42.640;23.302;2022-07-06T13:34:32;1.70;;;1.60;;
37931;SDS011;23758;42.640;23.302;2022-07-06T13:36:57;2.15;;;2.05;;
37931;SDS011;23758;42.640;23.302;2022-07-06T13:39:23;1.70;;;1.60;;
37931;SDS011;23758;42.640;23.302;2022-07-06T13:41:49;1.52;;;1.42;;
37931;SDS011;23758;42.640;23.302;2022-07-06T13:44:14;1.83;;;1.73;;
37931;SDS011;23758;42.640;23.302;2022-07-06T13:46:40;2.13;;;1.92;;
37931;SDS011;23758;42.640;23.302;2022-07-06T13:49:05;1.40;;;1.30;;
37931;SDS011;23758;42.640;23.302;2022-07-06T13:51:31;1.80;;;1.70;;
37931;SDS011;23758;42.640;23.302;2022-07-06T13:54:00;1.80;;;1.70;;
37931;SDS011;23758;42.640;23.302;2022-07-06T13:56:27;2.20;;;2.10;;
37931;SDS011;23758;42.640;23.302;2022-07-06T13:58:53;1.60;;;1.50;;
37931;SDS011;23758;42.640;23.302;2022-07-06T14:01:19;2.80;;;2.60;;
37931;SDS011;23758;42.640;23.302;2022-07-06T14:03:45;1.50;;;1.40;;
37931;SDS011;23758;42.640;23.302;2022-07-06T14:06:10;3.80;;;2.03;;
37931;SDS011;23758;42.640;23.302;2022-07-06T14:08:37;1.70;;;1.60;;
37931;SDS011;23758;42.640;23.302;2022-07-06T14:11:04;1.50;;;1.40;;
37931;SDS011;23758;42.640;23.302;2022-07-06T14:13:30;1.60;;;1.50;;
37931;SDS011;23758;42.640;23.302;2022-07-06T14:15:56;1.60;;;1.50;;
37931;SDS011;23758;42.640;23.302;2022-07-06T14:18:22;1.60;;;1.50;;
37931;SDS011;23758;42.640;23.302;2022-07-06T14:20:48;1.77;;;1.67;;
37931;SDS011;23758;42.640;23.302;2022-07-06T14:23:14;1.60;;;1.50;;
37931;SDS011;23758;42.640;23.302;2022-07-06T14:25:41;1.70;;;1.60;;
37931;SDS011;23758;42.640;23.302;2022-07-06T14:28:08;1.70;;;1.60;;
37931;SDS011;23758;42.640;23.302;2022-07-06T14:30:34;1.70;;;1.60;;
37931;SDS011;23758;42.640;23.302;2022-07-06T14:33:04;2.08;;;1.98;;
37931;SDS011;23758;42.640;23.302;2022-07-06T14:35:37;1.60;;;1.50;;
37931;SDS011;23758;42.640;23.302;2022-07-06T14:38:04;1.55;;;1.45;;
37931;SDS011;23758;42.640;23.302;2022-07-06T14:40:30;1.55;;;1.45;;
37931;SDS011;23758;42.640;23.302;2022-07-06T14:42:57;1.50;;;1.40;;